This is the latest recevied weather packets stored in our database for station/object N7MLR. If no packets are shown the sender has not sent any weather packets the latest 10 day(s).
| Time | Temp. | Humidity | Pressure | Rain* | Wind** | Luminosity | Snow |
|---|---|---|---|---|---|---|---|
| 1777917395 | 25.56° C | 64% | 1012.9 hPa | 0 mm | - | 350 W/m² | - |
| 1777917092 | 25° C | 65% | 1013.1 hPa | 0 mm | - | 586 W/m² | - |
| 1777916790 | 25° C | 64% | 1013.3 hPa | 0 mm | - | 826 W/m² | - |
| 1777916486 | 25.56° C | 65% | 1013.2 hPa | 0 mm | - | 883 W/m² | - |
| 1777916184 | 25.56° C | 65% | 1013.5 hPa | 0 mm | - | 898 W/m² | - |
| 1777915881 | 24.44° C | 67% | 1013.5 hPa | 0 mm | - | 373 W/m² | - |
| 1777915577 | 23.89° C | 68% | 1013.6 hPa | 0 mm | - | 323 W/m² | - |
| 1777915274 | 24.44° C | 69% | 1013.4 hPa | 0 mm | - | 263 W/m² | - |
| 1777914970 | 23.89° C | 68% | 1013.5 hPa | 0 mm | - | 819 W/m² | - |
| 1777914668 | 22.78° C | 72% | 1013.7 hPa | 0 mm | - | 258 W/m² | - |
| 1777914363 | 22.78° C | 72% | 1013.8 hPa | 0 mm | - | 209 W/m² | - |
| 1777914061 | 23.33° C | 70% | 1014 hPa | 0 mm | - | 532 W/m² | - |
| 1777913756 | 22.78° C | 72% | 1014.2 hPa | 0 mm | - | 624 W/m² | - |
| 1777913454 | 23.89° C | 71% | 1013.8 hPa | 0 mm | - | 200 W/m² | - |
| 1777913150 | 22.78° C | 72% | 1014.1 hPa | 0 mm | - | 873 W/m² | - |
| 1777912847 | 22.22° C | 74% | 1014.4 hPa | 0 mm | - | 449 W/m² | - |
| 1777912543 | 22.78° C | 74% | 1014.2 hPa | 0 mm | - | 242 W/m² | - |
| 1777912239 | 22.22° C | 74% | 1013.8 hPa | 0 mm | - | 216 W/m² | - |
| 1777911936 | 21.67° C | 76% | 1014.2 hPa | 0 mm | - | 461 W/m² | - |
| 1777911632 | 21.67° C | 76% | 1014.2 hPa | 0 mm | - | 187 W/m² | - |
| 1777911328 | 22.22° C | 75% | 1014.4 hPa | 0 mm | - | 314 W/m² | - |
| 1777911026 | 21.67° C | 76% | 1014.5 hPa | 0 mm | - | 850 W/m² | - |
| 1777910724 | 21.11° C | 77% | 1014.5 hPa | 0 mm | - | 214 W/m² | - |
| 1777910420 | 21.11° C | 78% | 1014.4 hPa | 0 mm | - | 294 W/m² | - |
| 1777910116 | 20.56° C | 79% | 1014.3 hPa | 0 mm | - | 178 W/m² | - |
* Rain latest hour (hover to see other rain measurements)
** Current wind speed in m/s (hover to see current wind gust speed)